Time;durP1;ratioP1;P1;durP2;ratioP2;P2;SDS_P1;SDS_P2;PMS_P1;PMS_P2;Temp;Humidity;BMP_temperature;BMP_pressure;BME280_temperature;BME280_humidity;BME280_pressure;Samples;Min_cycle;Max_cycle;Signal;HPM_P1;HPM_P2
2023/09/20 00:01:33;;;;;;;;;0.00;0.00;;;;;-143.90;100.00;74721.56;5004588;27;102358;-72
2023/09/20 00:04:03;;;;;;;;;1.00;1.00;;;;;-143.90;100.00;74719.47;4999321;27;102186;-72
2023/09/20 00:06:29;;;;;;;;;1.00;1.00;;;;;-143.90;100.00;74721.56;5005300;27;103231;-72
2023/09/20 00:08:58;;;;;;;;;1.75;1.75;;;;;-143.90;100.00;74713.28;5003414;27;104195;-72
2023/09/20 00:11:25;;;;;;;;;0.00;0.00;;;;;-143.90;100.00;74713.28;5001601;27;102936;-72
2023/09/20 00:13:52;;;;;;;;;0.67;0.67;;;;;-143.90;100.00;74717.41;4996393;27;103622;-73
2023/09/20 00:16:19;;;;;;;;;0.00;0.00;;;;;-143.90;100.00;74709.16;4994256;28;102032;-72
2023/09/20 00:18:46;;;;;;;;;0.00;0.00;;;;;-143.90;100.00;74705.00;5009223;27;104089;-72
2023/09/20 00:21:13;;;;;;;;;1.00;1.00;;;;;-143.90;100.00;74702.94;4991912;27;102797;-73
2023/09/20 00:23:40;;;;;;;;;1.00;1.00;;;;;-143.90;100.00;74709.16;5001070;27;102549;-73
2023/09/20 00:26:07;;;;;;;;;1.33;1.33;;;;;-143.90;100.00;74702.94;5007465;27;102185;-73
2023/09/20 00:28:35;;;;;;;;;1.00;1.00;;;;;-143.90;100.00;74702.94;4985306;27;103989;-72
2023/09/20 00:31:04;;;;;;;;;1.00;0.00;;;;;-143.90;100.00;74700.88;5003143;27;102280;-72
2023/09/20 00:33:34;;;;;;;;;1.00;1.00;;;;;-143.90;100.00;74698.81;4992716;27;102378;-72
2023/09/20 00:36:00;;;;;;;;;2.00;2.00;;;;;-143.90;100.00;74702.94;5014002;27;102553;-72
2023/09/20 00:38:27;;;;;;;;;0.00;0.00;;;;;-143.90;100.00;74700.88;4985621;28;105133;-73
2023/09/20 00:40:54;;;;;;;;;1.00;1.00;;;;;-143.90;100.00;74696.75;4982968;27;105152;-73
2023/09/20 00:43:24;;;;;;;;;1.00;0.00;;;;;-143.90;100.00;74696.75;4998541;27;102016;-72
2023/09/20 00:45:52;;;;;;;;;0.00;0.00;;;;;-143.90;100.00;74698.81;4996820;27;102281;-73
2023/09/20 00:48:19;;;;;;;;;0.00;0.00;;;;;-143.90;100.00;74698.81;5024281;27;103886;-72
2023/09/20 00:50:48;;;;;;;;;2.25;2.00;;;;;-143.90;100.00;74698.81;5008793;27;102364;-73
2023/09/20 00:53:14;;;;;;;;;0.50;0.50;;;;;-143.90;99.62;74705.00;4996236;27;103755;-72
2023/09/20 00:55:42;;;;;;;;;2.00;2.00;;;;;-143.90;99.66;74709.16;5005358;27;103306;-72
2023/09/20 00:58:17;;;;;;;;;1.00;1.00;;;;;-143.90;99.53;74709.16;5008661;27;104208;-73
2023/09/20 01:00:45;;;;;;;;;0.25;0.25;;;;;-143.90;99.94;74711.22;5003920;27;102291;-73
2023/09/20 01:03:17;;;;;;;;;0.33;0.00;;;;;-143.90;99.65;74717.41;4995385;27;102666;-71
2023/09/20 01:05:47;;;;;;;;;1.00;1.00;;;;;-143.90;99.91;74713.28;5007442;27;103745;-72
2023/09/20 01:08:17;;;;;;;;;2.00;1.00;;;;;-143.90;99.83;74715.34;5005758;27;104437;-72
2023/09/20 01:10:46;;;;;;;;;0.00;0.00;;;;;-143.90;99.51;74719.47;4990705;27;101928;-72
2023/09/20 01:13:15;;;;;;;;;1.00;1.00;;;;;-143.90;99.49;74723.63;5014242;27;103143;-72
2023/09/20 01:15:42;;;;;;;;;2.00;1.00;;;;;-143.90;99.73;74719.47;5016512;27;101881;-72
2023/09/20 01:18:09;;;;;;;;;2.00;1.25;;;;;-143.90;99.69;74719.47;5007238;27;104582;-72
2023/09/20 01:20:40;;;;;;;;;1.00;1.00;;;;;-143.90;99.70;74713.28;5010314;27;102079;-72
2023/09/20 01:23:06;;;;;;;;;1.00;1.00;;;;;-143.90;100.00;74715.34;5007928;27;102316;-72
2023/09/20 01:25:38;;;;;;;;;2.00;2.00;;;;;-143.90;99.84;74719.47;5002231;27;103453;-72
2023/09/20 01:28:08;;;;;;;;;0.00;0.00;;;;;-143.90;99.75;74723.63;5002220;27;103251;-72
2023/09/20 01:30:37;;;;;;;;;1.00;1.00;;;;;-143.90;99.31;74729.81;5006862;27;102069;-72
2023/09/20 01:33:07;;;;;;;;;1.75;1.75;;;;;-143.90;99.27;74733.97;5002326;27;102253;-72
2023/09/20 01:35:36;;;;;;;;;1.00;1.00;;;;;-143.90;99.45;74731.88;4990480;27;102039;-73
2023/09/20 01:38:05;;;;;;;;;1.75;1.75;;;;;-143.90;98.95;74738.09;5005905;27;103992;-73
2023/09/20 01:40:33;;;;;;;;;2.00;2.00;;;;;-143.90;98.85;74742.22;5010824;27;102013;-73
2023/09/20 01:43:01;;;;;;;;;2.00;2.00;;;;;-143.90;98.75;74746.34;5018129;27;102189;-73
2023/09/20 01:45:28;;;;;;;;;0.00;0.00;;;;;-143.90;98.55;74750.50;4997078;27;102309;-73
2023/09/20 01:48:00;;;;;;;;;1.00;1.00;;;;;-143.90;98.66;74767.03;5008504;27;104220;-73
2023/09/20 01:50:30;;;;;;;;;0.33;0.33;;;;;-143.90;98.48;74764.97;5000034;28;102206;-73
2023/09/20 01:52:59;;;;;;;;;3.00;3.00;;;;;-143.90;98.97;74779.44;5001317;27;102004;-73
2023/09/20 01:55:31;;;;;;;;;3.00;3.00;;;;;-143.90;98.47;74779.44;5007160;27;102421;-73
2023/09/20 01:58:12;;;;;;;;;2.00;2.00;;;;;-143.90;98.28;74791.84;5001865;28;108505;-73
2023/09/20 02:00:41;;;;;;;;;2.25;2.25;;;;;-143.90;98.13;74802.16;5000151;27;101928;-74
2023/09/20 02:03:16;;;;;;;;;2.00;1.25;;;;;-143.90;97.78;74800.09;5003800;27;102334;-72
2023/09/20 02:05:47;;;;;;;;;3.00;2.00;;;;;-143.90;98.04;74802.16;5001799;27;102311;-71
2023/09/20 02:08:16;;;;;;;;;2.00;1.25;;;;;-143.90;98.10;74812.50;5001493;27;104614;-72
2023/09/20 02:10:44;;;;;;;;;0.75;0.75;;;;;-143.90;98.22;74810.44;5004654;27;102266;-72
2023/09/20 02:13:11;;;;;;;;;0.00;0.00;;;;;-143.90;97.81;74833.19;4991653;27;102044;-72
2023/09/20 02:15:41;;;;;;;;;0.75;0.75;;;;;-143.90;98.30;74835.25;5004299;27;105377;-72
2023/09/20 02:18:09;;;;;;;;;1.00;1.00;;;;;-143.90;98.07;74835.25;4987181;28;104004;-72
2023/09/20 02:20:37;;;;;;;;;1.00;1.00;;;;;-143.90;98.16;74833.19;4998770;27;102640;-73
2023/09/20 02:23:08;;;;;;;;;1.00;1.00;;;;;-143.90;98.13;74837.31;4999702;27;101948;-72
2023/09/20 02:25:35;;;;;;;;;0.50;0.00;;;;;-143.90;97.97;74839.38;5008952;27;102055;-72
2023/09/20 02:28:03;;;;;;;;;1.00;1.00;;;;;-143.90;98.49;74843.53;4995274;27;104045;-72
2023/09/20 02:30:35;;;;;;;;;0.75;0.25;;;;;-143.90;98.34;74849.72;5002427;27;102452;-71
2023/09/20 02:33:07;;;;;;;;;0.25;0.25;;;;;-143.90;98.06;74855.91;5007124;27;103122;-71
2023/09/20 02:35:36;;;;;;;;;2.00;1.25;;;;;-143.90;98.60;74862.13;4988696;28;102379;-71
2023/09/20 02:38:05;;;;;;;;;1.75;1.75;;;;;-143.90;98.10;74868.31;4978285;28;108765;-71
2023/09/20 02:40:35;;;;;;;;;2.00;2.00;;;;;-143.90;98.70;74876.59;4986661;28;103523;-71
2023/09/20 02:43:03;;;;;;;;;1.00;1.00;;;;;-143.90;98.69;74876.59;4973982;28;101898;-72
2023/09/20 02:45:32;;;;;;;;;1.00;1.00;;;;;-143.90;98.30;74882.78;4984687;28;103440;-72
2023/09/20 02:48:06;;;;;;;;;1.00;1.00;;;;;-143.90;98.87;74880.72;4984283;28;104006;-72
2023/09/20 02:50:35;;;;;;;;;2.25;2.00;;;;;-143.90;99.14;74878.66;4983333;28;101955;-72
2023/09/20 02:53:02;;;;;;;;;1.00;1.00;;;;;-143.90;98.77;74878.66;4983979;28;103500;-72
2023/09/20 02:55:32;;;;;;;;;1.00;1.00;;;;;-143.90;98.23;74880.72;4975376;28;103108;-72
2023/09/20 02:57:59;;;;;;;;;2.00;1.50;;;;;-143.90;98.93;74882.78;4980427;28;104020;-72
2023/09/20 03:00:31;;;;;;;;;3.25;1.25;;;;;-143.90;98.62;74882.78;4987453;28;101876;-72
2023/09/20 03:03:01;;;;;;;;;1.00;0.00;;;;;-143.90;98.91;74891.06;4979547;28;101992;-72
2023/09/20 03:05:33;;;;;;;;;0.75;0.00;;;;;-143.90;99.22;74895.19;4965661;28;102021;-72
2023/09/20 03:08:04;;;;;;;;;1.00;1.00;;;;;-143.90;99.26;74893.13;4975248;28;103981;-72
2023/09/20 03:10:38;;;;;;;;;2.00;2.00;;;;;-143.90;99.23;74891.06;5004203;28;102197;-71
2023/09/20 03:13:05;;;;;;;;;0.75;0.75;;;;;-143.90;99.07;74901.41;4978903;28;102255;-72
2023/09/20 03:15:32;;;;;;;;;1.00;1.00;;;;;-143.90;99.03;74895.19;4974846;28;101943;-71
2023/09/20 03:18:03;;;;;;;;;0.00;0.00;;;;;-143.90;99.37;74899.34;4982217;28;104093;-71
2023/09/20 03:20:34;;;;;;;;;2.25;1.00;;;;;-143.90;98.85;74907.59;4974976;28;102142;-71
2023/09/20 03:23:05;;;;;;;;;0.25;0.25;;;;;-143.90;98.87;74899.34;4973330;28;103665;-74
2023/09/20 03:25:38;;;;;;;;;0.50;0.50;;;;;-143.90;98.56;74907.59;4977281;28;103374;-71
2023/09/20 03:28:12;;;;;;;;;0.00;0.00;;;;;-143.90;98.68;74911.72;4980807;28;104161;-71
2023/09/20 03:30:39;;;;;;;;;1.00;1.00;;;;;-143.90;99.09;74907.59;4984526;28;104177;-71
2023/09/20 03:33:08;;;;;;;;;0.00;0.00;;;;;-143.90;99.22;74909.66;4981671;28;101939;-72
2023/09/20 03:35:35;;;;;;;;;0.00;0.00;;;;;-143.90;99.65;74905.53;4984204;28;105533;-72
2023/09/20 03:38:03;;;;;;;;;0.25;0.25;;;;;-143.90;99.63;74905.53;4982797;28;103681;-72
2023/09/20 03:40:30;;;;;;;;;1.00;1.00;;;;;-143.90;99.36;74909.66;4976748;28;102713;-73
2023/09/20 03:42:56;;;;;;;;;1.50;1.00;;;;;-143.90;99.64;74911.72;4987305;28;102245;-72
2023/09/20 03:45:26;;;;;;;;;2.00;1.00;;;;;-143.90;100.00;74915.88;4984730;28;102129;-71
2023/09/20 03:48:01;;;;;;;;;0.25;0.25;;;;;-143.90;100.00;74920.00;4974670;28;103997;-72
2023/09/20 03:50:28;;;;;;;;;1.75;1.75;;;;;-143.90;100.00;74920.00;4986932;28;102090;-71
2023/09/20 03:52:55;;;;;;;;;0.00;0.00;;;;;-143.90;100.00;74915.88;4977730;28;103376;-72
2023/09/20 03:55:23;;;;;;;;;2.50;1.25;;;;;-143.90;100.00;74917.94;4983506;28;102472;-72
2023/09/20 03:57:50;;;;;;;;;1.00;1.00;;;;;-143.90;100.00;74907.59;4982024;28;104085;-72
2023/09/20 04:00:28;;;;;;;;;0.75;0.75;;;;;-143.90;100.00;74911.72;4980252;28;101954;-72
2023/09/20 04:02:56;;;;;;;;;1.75;1.00;;;;;-143.90;100.00;74903.47;4977830;28;103312;-72
2023/09/20 04:05:24;;;;;;;;;1.00;1.00;;;;;-143.90;100.00;74909.66;4973743;28;102213;-72
2023/09/20 04:08:11;;;;;;;;;2.00;2.00;;;;;-143.90;100.00;74901.41;4981506;28;110529;-72
2023/09/20 04:10:39;;;;;;;;;1.50;1.50;;;;;-143.90;100.00;74907.59;4982912;28;102180;-72
2023/09/20 04:13:06;;;;;;;;;4.50;3.50;;;;;-143.90;100.00;74915.88;4984052;28;102159;-72
2023/09/20 04:15:33;;;;;;;;;3.00;2.50;;;;;-143.90;100.00;74911.72;4984046;28;101927;-72
2023/09/20 04:18:08;;;;;;;;;3.00;2.25;;;;;-143.90;100.00;74909.66;4968902;28;103477;-73
2023/09/20 04:20:35;;;;;;;;;3.00;3.00;;;;;-143.90;100.00;74911.72;4987120;28;102339;-73
2023/09/20 04:23:03;;;;;;;;;4.75;4.75;;;;;-143.90;100.00;74915.88;4987234;28;103113;-73
2023/09/20 04:25:30;;;;;;;;;2.25;2.25;;;;;-143.90;100.00;74911.72;4982857;28;102109;-74
2023/09/20 04:27:56;;;;;;;;;2.00;2.00;;;;;-143.90;100.00;74915.88;4978775;28;104228;-73
2023/09/20 04:30:23;;;;;;;;;1.50;1.50;;;;;-143.90;100.00;74911.72;4983928;28;102146;-73
2023/09/20 04:32:51;;;;;;;;;2.00;2.00;;;;;-143.90;100.00;74909.66;4987129;28;104424;-73
2023/09/20 04:35:18;;;;;;;;;2.75;2.75;;;;;-143.90;99.99;74920.00;5000824;28;102066;-73
2023/09/20 04:37:45;;;;;;;;;5.50;5.00;;;;;-143.90;100.00;74928.28;4987684;28;104257;-73
2023/09/20 04:40:13;;;;;;;;;2.50;1.75;;;;;-143.90;100.00;74924.13;4971708;28;101910;-73
2023/09/20 04:42:40;;;;;;;;;3.00;2.00;;;;;-143.90;100.00;74928.28;4983219;28;103665;-73
2023/09/20 04:45:07;;;;;;;;;4.75;3.75;;;;;-143.90;100.00;74924.13;4985959;28;102013;-73
2023/09/20 04:47:37;;;;;;;;;2.00;2.00;;;;;-143.90;100.00;74932.41;4982569;28;103812;-73
2023/09/20 04:50:04;;;;;;;;;2.00;2.00;;;;;-143.90;99.58;74940.69;4978909;27;105009;-73
2023/09/20 04:52:31;;;;;;;;;3.75;2.50;;;;;-143.90;99.93;74934.47;4980771;28;102336;-73
2023/09/20 04:54:58;;;;;;;;;2.00;2.00;;;;;-143.90;99.81;74940.69;4973419;28;102428;-73
2023/09/20 04:57:25;;;;;;;;;2.25;2.25;;;;;-143.90;100.00;74936.53;4993961;28;104223;-73
2023/09/20 04:59:52;;;;;;;;;1.00;1.00;;;;;-143.90;100.00;74934.47;4992950;28;102188;-73
2023/09/20 05:02:19;;;;;;;;;1.00;1.00;;;;;-143.90;99.97;74932.41;4972357;28;102233;-73
2023/09/20 05:04:45;;;;;;;;;0.25;0.25;;;;;-143.90;99.91;74930.34;4978113;28;101989;-73
2023/09/20 05:07:12;;;;;;;;;0.75;0.75;;;;;-143.90;100.00;74924.13;4987029;28;103976;-73
2023/09/20 05:09:39;;;;;;;;;1.75;1.25;;;;;-143.90;100.00;74928.28;4980633;28;102624;-72
2023/09/20 05:12:09;;;;;;;;;2.00;2.00;;;;;-143.90;99.86;74924.13;5000384;28;102075;-73
2023/09/20 05:14:36;;;;;;;;;2.00;2.00;;;;;-143.90;100.00;74924.13;4976616;28;102417;-73
2023/09/20 05:17:04;;;;;;;;;1.00;1.00;;;;;-143.90;100.00;74913.81;4991527;28;103859;-73
2023/09/20 05:19:30;;;;;;;;;2.00;1.00;;;;;-143.90;99.88;74913.81;4989684;28;102459;-73
2023/09/20 05:21:58;;;;;;;;;0.75;0.75;;;;;-143.90;100.00;74922.06;4987170;28;102042;-73
2023/09/20 05:24:25;;;;;;;;;3.00;2.75;;;;;-143.90;100.00;74915.88;4984501;28;104099;-73
2023/09/20 05:26:53;;;;;;;;;1.75;1.75;;;;;-143.90;100.00;74920.00;4989430;28;108493;-73
2023/09/20 05:29:20;;;;;;;;;3.25;2.00;;;;;-143.90;99.81;74911.72;4986042;28;102999;-73
2023/09/20 05:31:49;;;;;;;;;2.00;1.00;;;;;-143.90;100.00;74911.72;4989034;28;101896;-73
2023/09/20 05:34:16;;;;;;;;;1.00;1.00;;;;;-143.90;99.68;74920.00;4988876;28;102306;-73
2023/09/20 05:36:45;;;;;;;;;2.00;2.00;;;;;-143.90;100.00;74915.88;4988061;28;103848;-73
2023/09/20 05:39:12;;;;;;;;;3.00;3.00;;;;;-143.90;100.00;74913.81;4989437;28;101886;-73
2023/09/20 05:41:40;;;;;;;;;1.25;1.00;;;;;-143.90;100.00;74901.41;4989652;28;104666;-73
2023/09/20 05:44:07;;;;;;;;;2.00;2.00;;;;;-143.90;100.00;74886.94;4983033;28;102279;-73
2023/09/20 05:46:34;;;;;;;;;1.00;1.00;;;;;-143.90;100.00;74886.94;4985804;28;103277;-73
2023/09/20 05:49:02;;;;;;;;;3.00;2.00;;;;;-143.90;100.00;74876.59;4991367;28;102159;-72
2023/09/20 05:51:30;;;;;;;;;3.00;3.00;;;;;-143.90;99.53;74864.19;4985709;28;101972;-73
2023/09/20 05:53:56;;;;;;;;;3.50;3.50;;;;;-143.90;100.00;74860.06;4985242;28;102358;-73
2023/09/20 05:56:24;;;;;;;;;3.50;2.50;;;;;-143.90;99.89;74853.84;4968253;28;103557;-73
2023/09/20 05:58:53;;;;;;;;;1.00;1.00;;;;;-143.90;99.58;74845.59;4989485;28;101875;-73
2023/09/20 06:01:23;;;;;;;;;4.00;4.00;;;;;-143.90;99.72;74849.72;4985256;28;102426;-73
2023/09/20 06:03:56;;;;;;;;;2.50;2.00;;;;;-143.90;99.51;74833.19;4986240;28;103494;-73
2023/09/20 06:06:23;;;;;;;;;3.25;2.50;;;;;-143.90;99.18;74820.78;4986018;28;108554;-73
2023/09/20 06:08:50;;;;;;;;;2.00;2.00;;;;;-143.90;99.08;74812.50;4985073;28;102959;-73
2023/09/20 06:11:18;;;;;;;;;2.25;2.00;;;;;-143.90;98.67;74806.31;4985885;28;102013;-73
2023/09/20 06:13:46;;;;;;;;;3.50;3.00;;;;;-143.90;98.83;74795.97;4991053;28;102565;-73
2023/09/20 06:16:13;;;;;;;;;2.25;2.00;;;;;-143.90;99.09;74783.56;4987263;28;105922;-73
2023/09/20 06:18:42;;;;;;;;;1.50;1.50;;;;;-143.90;98.10;74754.63;4986555;28;102753;-73
2023/09/20 06:21:31;;;;;;;;;4.00;2.75;;;;;-143.90;96.17;74709.16;4980147;28;102232;-73
2023/09/20 06:23:58;;;;;;;;;3.00;2.00;;;;;-143.90;94.89;74678.16;4986517;28;102930;-73
2023/09/20 06:26:25;;;;;;;;;3.00;3.00;;;;;-143.90;93.56;74655.41;4987517;28;104250;-73
2023/09/20 06:28:52;;;;;;;;;3.75;3.00;;;;;-143.90;92.26;74643.00;4994752;28;101912;-73
2023/09/20 06:31:19;;;;;;;;;4.00;3.25;;;;;-143.90;92.23;74634.72;4988649;27;101983;-71
2023/09/20 06:33:46;;;;;;;;;2.00;2.00;;;;;-143.90;91.81;74612.00;5003137;28;103593;-72
2023/09/20 06:36:17;;;;;;;;;5.00;3.50;;;;;-143.90;91.84;74626.47;4986451;28;103879;-72
2023/09/20 06:38:46;;;;;;;;;3.67;3.67;;;;;-143.90;91.33;74614.06;4986904;28;102164;-74
2023/09/20 06:41:14;;;;;;;;;4.25;3.75;;;;;-143.90;90.83;74593.38;4988368;28;102430;-73
2023/09/20 06:43:42;;;;;;;;;4.00;3.00;;;;;-143.90;90.81;74587.19;5002130;28;102489;-73
2023/09/20 06:46:09;;;;;;;;;3.33;3.33;;;;;-143.90;90.29;74585.13;4985015;28;103759;-73
2023/09/20 06:48:37;;;;;;;;;3.00;3.00;;;;;-143.90;89.94;74564.44;4985261;28;102468;-73
2023/09/20 06:51:04;;;;;;;;;5.00;4.00;;;;;-143.90;89.28;74554.13;4979673;28;102074;-73
2023/09/20 06:53:31;;;;;;;;;5.00;4.00;;;;;-143.90;88.53;74547.91;4981743;28;102406;-72
2023/09/20 06:56:01;;;;;;;;;1.67;1.67;;;;;-143.90;87.96;74533.44;4987115;28;104315;-73
2023/09/20 06:58:28;;;;;;;;;3.00;2.00;;;;;-143.90;87.54;74531.38;4998281;28;102371;-72
2023/09/20 07:00:55;;;;;;;;;2.33;2.00;;;;;-143.90;86.47;74512.78;5005196;28;102108;-73
2023/09/20 07:03:22;;;;;;;;;3.00;3.00;;;;;-143.90;87.74;74500.38;4974851;28;103040;-73
2023/09/20 07:05:51;;;;;;;;;3.00;2.00;;;;;-143.90;88.05;74490.03;4999309;28;103142;-74
2023/09/20 07:08:21;;;;;;;;;4.67;4.00;;;;;-143.90;86.04;74506.56;4986839;28;102492;-74
2023/09/20 07:10:50;;;;;;;;;3.67;3.00;;;;;-143.90;86.16;74506.56;4990104;28;103058;-73
2023/09/20 07:13:19;;;;;;;;;3.00;3.00;;;;;-143.90;84.91;74481.78;4988875;28;102103;-73
2023/09/20 07:15:47;;;;;;;;;4.00;4.00;;;;;-143.90;86.26;74465.22;4981550;28;103266;-72
2023/09/20 07:18:14;;;;;;;;;3.00;2.67;;;;;-143.90;85.82;74465.22;4977820;28;103194;-72
2023/09/20 07:20:42;;;;;;;;;4.00;3.00;;;;;-143.90;85.87;74450.75;4984881;28;102334;-73
2023/09/20 07:23:15;;;;;;;;;3.00;3.00;;;;;-143.90;84.24;74461.09;4979792;28;102031;-73
2023/09/20 07:25:43;;;;;;;;;4.33;3.00;;;;;-143.90;84.00;74475.56;4974817;28;103976;-74
2023/09/20 07:28:10;;;;;;;;;3.00;3.00;;;;;-143.90;82.60;74467.31;4988021;28;102106;-72
2023/09/20 07:30:40;;;;;;;;;3.00;2.67;;;;;-143.90;82.34;74452.84;4983429;28;102416;-73
2023/09/20 07:33:19;;;;;;;;;3.00;3.00;;;;;-143.90;84.31;74434.22;4983209;28;102182;-73
2023/09/20 07:35:52;;;;;;;;;2.00;2.00;;;;;-143.90;82.57;74440.44;4980228;28;103935;-72
2023/09/20 07:38:26;;;;;;;;;5.00;4.00;;;;;-143.90;80.86;74423.88;4984516;28;101960;-72
2023/09/20 07:41:13;;;;;;;;;2.00;2.00;;;;;-143.90;82.33;74409.41;4986552;28;102085;-72
2023/09/20 07:43:44;;;;;;;;;4.00;3.00;;;;;-143.90;80.77;74403.22;4984299;28;102405;-72
2023/09/20 07:46:13;;;;;;;;;3.00;2.00;;;;;-143.90;81.67;74394.94;4987144;28;104438;-72
2023/09/20 07:48:47;;;;;;;;;1.67;1.67;;;;;-143.90;80.08;74382.56;4983017;28;102434;-74
2023/09/20 07:51:24;;;;;;;;;2.00;2.00;;;;;-143.90;80.06;74368.09;4982461;28;102118;-73
2023/09/20 07:53:55;;;;;;;;;2.00;2.00;;;;;-143.90;79.94;74353.63;4990470;28;102374;-73
2023/09/20 07:56:24;;;;;;;;;3.33;3.00;;;;;-143.90;78.02;74347.41;5001060;28;104205;-72
2023/09/20 07:58:53;;;;;;;;;2.00;1.00;;;;;-143.90;79.70;74320.53;5004673;28;102659;-74
2023/09/20 08:01:22;;;;;;;;;1.33;1.33;;;;;-143.90;76.49;74320.53;4984510;28;102096;-73
2023/09/20 08:03:58;;;;;;;;;3.00;3.00;;;;;-143.90;76.80;74304.00;4982606;28;102354;-72
2023/09/20 08:06:35;;;;;;;;;3.33;2.00;;;;;-143.90;74.39;74316.41;4976352;28;109920;-72
2023/09/20 08:09:03;;;;;;;;;2.00;2.00;;;;;-143.90;75.44;74308.13;4960856;28;102098;-73
2023/09/20 08:11:31;;;;;;;;;3.00;2.00;;;;;-143.90;74.43;74314.34;4970878;28;102055;-74
2023/09/20 08:14:01;;;;;;;;;3.00;3.00;;;;;-143.90;73.05;74322.59;4995002;28;102030;-74
2023/09/20 08:16:32;;;;;;;;;3.00;2.67;;;;;-143.90;73.59;74306.06;4985895;28;109431;-74
2023/09/20 08:19:21;;;;;;;;;3.00;3.00;;;;;-143.90;72.57;74299.88;4985397;28;101851;-72
2023/09/20 08:21:49;;;;;;;;;3.00;2.33;;;;;-143.90;72.80;74299.88;4985027;28;102717;-73
2023/09/20 09:00:30;;;;;;;;;3.00;2.33;;;;;-143.90;70.18;74173.78;4990690;27;103664;-73
2023/09/20 09:03:00;;;;;;;;;3.00;3.00;;;;;-143.90;68.48;74165.53;4982954;28;102184;-73
2023/09/20 09:05:29;;;;;;;;;3.00;2.00;;;;;-143.90;70.58;74142.78;4992792;28;102226;-73
2023/09/20 09:07:58;;;;;;;;;4.00;3.00;;;;;-143.90;69.50;74159.31;4992017;28;102424;-72
2023/09/20 09:10:26;;;;;;;;;3.00;3.00;;;;;-143.90;68.70;74151.06;4990068;28;110238;-72
2023/09/20 09:12:53;;;;;;;;;3.00;3.00;;;;;-143.90;71.14;74151.06;4974753;28;102007;-72
2023/09/20 09:15:22;;;;;;;;;3.00;2.00;;;;;-143.90;68.59;74151.06;4975598;28;103115;-73
2023/09/20 09:17:49;;;;;;;;;2.67;2.00;;;;;-143.90;68.69;74146.91;4987208;28;104243;-73
2023/09/20 09:20:19;;;;;;;;;4.00;4.00;;;;;-143.90;68.69;74142.78;5005473;27;104008;-73
2023/09/20 09:22:48;;;;;;;;;4.00;3.33;;;;;-143.90;69.52;74134.53;4978464;28;102167;-73
2023/09/20 09:25:18;;;;;;;;;5.00;5.00;;;;;-143.90;70.44;74120.06;5001415;27;102244;-73
2023/09/20 09:27:45;;;;;;;;;3.00;3.00;;;;;-143.90;68.14;74105.59;4993334;28;102281;-72
2023/09/20 09:30:17;;;;;;;;;3.00;2.00;;;;;-143.90;67.90;74103.53;4987074;28;105789;-72
2023/09/20 09:32:47;;;;;;;;;3.00;3.00;;;;;-143.90;65.58;74093.19;4986018;28;102017;-73
2023/09/20 09:35:18;;;;;;;;;3.00;2.67;;;;;-143.90;66.01;74078.72;4984568;28;102246;-74
2023/09/20 09:38:01;;;;;;;;;1.67;1.00;;;;;-143.90;63.73;74082.84;4990428;28;102108;-74
2023/09/20 09:40:28;;;;;;;;;3.33;3.33;;;;;-143.90;64.64;74089.06;4987869;28;104106;-74
2023/09/20 09:43:11;;;;;;;;;3.00;3.00;;;;;-143.90;62.16;74084.91;4986748;28;103627;-73
2023/09/20 09:45:38;;;;;;;;;2.33;2.00;;;;;-143.90;62.99;74078.72;4990999;28;101945;-71
2023/09/20 09:48:06;;;;;;;;;2.00;2.00;;;;;-143.90;61.63;74062.19;4990860;28;102204;-72
2023/09/20 09:50:38;;;;;;;;;2.67;1.67;;;;;-143.90;61.77;74068.38;5003381;28;104013;-72
2023/09/20 09:53:08;;;;;;;;;4.00;3.33;;;;;-143.90;62.73;74064.25;4990389;28;102060;-73
2023/09/20 09:55:37;;;;;;;;;2.00;2.00;;;;;-143.90;63.99;74033.25;4983403;28;102355;-72
2023/09/20 09:58:04;;;;;;;;;1.33;0.67;;;;;-143.90;61.30;74020.84;4992736;28;102292;-72
2023/09/20 10:00:33;;;;;;;;;1.33;1.33;;;;;-143.90;63.17;74010.50;4987793;28;104251;-73
2023/09/20 10:03:11;;;;;;;;;1.67;1.67;;;;;-143.90;61.77;73993.97;4989166;28;104642;-73
2023/09/20 10:05:42;;;;;;;;;2.33;1.67;;;;;-143.90;61.38;73983.66;4988225;28;102115;-72
2023/09/20 10:08:13;;;;;;;;;1.33;1.33;;;;;-143.90;61.97;73973.31;4991824;28;110574;-72
2023/09/20 10:10:41;;;;;;;;;2.00;2.00;;;;;-143.90;59.68;73971.25;4980528;28;109086;-72
2023/09/20 10:13:13;;;;;;;;;1.67;1.33;;;;;-143.90;59.99;73954.72;4991865;28;102090;-72
2023/09/20 10:15:43;;;;;;;;;1.67;1.67;;;;;-143.90;60.98;73948.50;4999284;28;102347;-73
2023/09/20 10:18:11;;;;;;;;;2.00;1.67;;;;;-143.90;57.87;73946.44;4989550;28;105106;-72
2023/09/20 10:21:15;;;;;;;;;1.67;1.00;;;;;-143.90;56.72;73940.25;4986822;28;104209;-72
2023/09/20 10:23:42;;;;;;;;;3.00;3.00;;;;;-143.90;57.55;73950.56;4985707;28;102515;-73
2023/09/20 10:26:13;;;;;;;;;1.33;1.33;;;;;-143.90;56.56;73940.25;4985193;28;102378;-73
2023/09/20 10:28:52;;;;;;;;;2.67;2.67;;;;;-143.90;58.27;73952.63;4988785;28;102258;-73
2023/09/20 10:31:20;;;;;;;;;2.00;2.00;;;;;-143.90;57.76;73940.25;4982375;28;105027;-73
2023/09/20 10:33:57;;;;;;;;;2.00;2.00;;;;;-143.90;59.12;73936.09;4984120;28;102775;-72
2023/09/20 10:36:28;;;;;;;;;1.00;1.00;;;;;-143.90;58.44;73915.44;4986547;28;103160;-72
2023/09/20 10:39:19;;;;;;;;;2.00;2.00;;;;;-143.90;57.15;73911.31;4987392;28;102051;-72
2023/09/20 10:41:48;;;;;;;;;2.33;2.00;;;;;-143.90;56.87;73915.44;4987683;28;109088;-72
2023/09/20 10:44:30;;;;;;;;;2.00;2.00;;;;;-143.90;55.86;73909.25;4990927;28;102186;-72
2023/09/20 10:46:59;;;;;;;;;1.00;1.00;;;;;-143.90;55.99;73900.97;5003630;28;102118;-73
2023/09/20 10:49:52;;;;;;;;;2.00;1.67;;;;;-143.90;57.96;73884.44;4986534;28;101964;-73
2023/09/20 10:52:31;;;;;;;;;2.00;1.00;;;;;-143.90;56.82;73861.69;4983719;28;108327;-73
2023/09/20 10:55:42;;;;;;;;;2.00;2.00;;;;;-143.90;54.30;73878.25;4984442;28;102208;-73
2023/09/20 10:58:31;;;;;;;;;2.00;1.00;;;;;-143.90;54.97;73869.97;4923876;28;103626;-72
2023/09/20 11:01:08;;;;;;;;;2.00;2.00;;;;;-143.90;56.97;73865.84;4927566;28;102684;-73
2023/09/20 11:03:35;;;;;;;;;2.00;1.00;;;;;-143.90;57.17;73855.50;4966451;28;108334;-73
2023/09/20 11:06:02;;;;;;;;;1.00;0.00;;;;;-143.90;56.93;73847.25;4987753;28;102459;-72
2023/09/20 11:08:29;;;;;;;;;0.00;0.00;;;;;-143.90;56.11;73830.69;4985486;28;101955;-73
2023/09/20 11:10:59;;;;;;;;;2.00;1.00;;;;;-143.90;55.43;73822.44;4974735;28;101931;-72
2023/09/20 11:13:26;;;;;;;;;1.00;1.00;;;;;-143.90;54.97;73816.25;4984834;28;103586;-73
2023/09/20 11:15:55;;;;;;;;;1.00;1.00;;;;;-143.90;55.43;73810.03;4983904;28;102660;-73
2023/09/20 11:18:27;;;;;;;;;2.00;2.00;;;;;-143.90;53.52;73818.31;4978755;28;103009;-74
2023/09/20 11:20:54;;;;;;;;;2.00;2.00;;;;;-143.90;53.99;73799.69;4984416;28;106755;-72
2023/09/20 11:23:22;;;;;;;;;1.00;1.00;;;;;-143.90;56.31;73785.25;4981357;28;105123;-73
2023/09/20 11:25:50;;;;;;;;;1.33;1.00;;;;;-143.90;53.65;73774.91;4976011;28;102155;-72
2023/09/20 11:28:19;;;;;;;;;2.33;2.00;;;;;-143.90;55.32;73779.03;4980828;28;102211;-73
2023/09/20 11:30:51;;;;;;;;;1.67;1.00;;;;;-143.90;54.75;73781.09;4979340;28;102022;-74
2023/09/20 11:33:32;;;;;;;;;1.67;1.67;;;;;-143.90;54.96;73758.38;4987192;28;104222;-73
2023/09/20 11:35:59;;;;;;;;;2.33;2.00;;;;;-143.90;53.32;73772.84;4977800;28;102475;-73
2023/09/20 11:38:27;;;;;;;;;2.00;2.00;;;;;-143.90;53.24;73764.56;4985616;28;101898;-73
2023/09/20 11:40:54;;;;;;;;;2.00;2.00;;;;;-143.90;54.45;73748.03;4987311;28;102321;-73
2023/09/20 11:43:21;;;;;;;;;1.00;1.00;;;;;-143.90;52.27;73745.97;4988797;28;103717;-73
2023/09/20 11:45:52;;;;;;;;;2.33;2.00;;;;;-143.90;52.73;73745.97;4973105;28;101870;-72
2023/09/20 11:48:28;;;;;;;;;1.00;1.00;;;;;-143.90;52.97;73768.69;4960418;28;102479;-72
2023/09/20 11:50:55;;;;;;;;;3.00;3.00;;;;;-143.90;54.76;73783.16;4982916;28;102067;-72
2023/09/20 11:53:22;;;;;;;;;1.00;1.00;;;;;-143.90;53.38;73783.16;4977129;28;103324;-73
2023/09/20 11:55:49;;;;;;;;;2.00;1.67;;;;;-143.90;54.54;73776.97;4978565;28;103619;-71